< < Back
Terminal Aerodrome Forecast


Current Version              Previous Versions:   1  2  3  4  5  6  7  8  9  

Terminal Aerodrome Forecast

482
FTUS42 KGSP 021122
TAFAND
TAF
KAND 021122Z 0212/0312 04004KT P6SM FEW060
     FM021400 06008KT P6SM FEW060
     FM021900 08004KT P6SM FEW060=



Latest METAR

123
SAUS70 KWBC 021200 RRE
MTRAND
METAR KAND 021156Z AUTO 04005KT 10SM CLR 22/17 A2997 RMK AO2 SLP137
T02220167 10233 20178 51011


USA.gov is the U.S. government's official web portal to all federal, state and local government web resources and services.